Time;durP1;ratioP1;P1;durP2;ratioP2;P2;SDS_P1;SDS_P2;PMS_P1;PMS_P2;Temp;Humidity;BMP_temperature;BMP_pressure;BME280_temperature;BME280_humidity;BME280_pressure;Samples;Min_cycle;Max_cycle;Signal;HPM_P1;HPM_P2
2022/09/02 00:01:18;;;;;;;3.55;2.25;;;;;;;;;;4983922;28;20025;-81
2022/09/02 00:03:44;;;;;;;3.20;2.20;;;;;;;;;;5015880;28;20072;-81
2022/09/02 00:06:10;;;;;;;4.03;2.47;;;;;;;;;;4999748;28;20448;-81
2022/09/02 00:08:36;;;;;;;4.22;2.42;;;;;;;;;;5016594;28;20045;-81
2022/09/02 00:11:04;;;;;;;3.47;2.33;;;;;;;;;;4972568;28;20504;-81
2022/09/02 00:13:30;;;;;;;3.78;2.65;;;;;;;;;;4980779;28;20084;-82
2022/09/02 00:15:55;;;;;;;3.25;2.20;;;;;;;;;;4980161;28;20058;-81
2022/09/02 00:18:22;;;;;;;5.30;2.40;;;;;;;;;;4996371;28;20038;-81
2022/09/02 00:20:49;;;;;;;4.07;2.30;;;;;;;;;;4996727;28;20092;-81
2022/09/02 00:23:15;;;;;;;3.22;2.10;;;;;;;;;;4996518;28;20033;-81
2022/09/02 00:25:41;;;;;;;4.03;2.30;;;;;;;;;;4980370;28;20515;-81
2022/09/02 00:28:06;;;;;;;5.05;2.58;;;;;;;;;;4980403;28;20030;-81
2022/09/02 00:30:32;;;;;;;4.90;2.10;;;;;;;;;;4979751;28;20026;-81
2022/09/02 00:32:58;;;;;;;4.13;2.72;;;;;;;;;;4963409;28;20036;-81
2022/09/02 00:35:23;;;;;;;3.28;2.03;;;;;;;;;;4996099;28;20072;-81
2022/09/02 00:37:49;;;;;;;3.25;2.10;;;;;;;;;;4963848;28;20493;-81
2022/09/02 00:40:14;;;;;;;2.78;1.90;;;;;;;;;;4979743;28;20475;-81
2022/09/02 00:42:40;;;;;;;4.03;2.30;;;;;;;;;;4980614;28;20029;-81
2022/09/02 00:45:06;;;;;;;3.90;2.00;;;;;;;;;;4998933;28;20124;-81
2022/09/02 00:47:32;;;;;;;3.15;2.03;;;;;;;;;;5005644;28;20528;-81
2022/09/02 00:49:57;;;;;;;3.03;2.10;;;;;;;;;;4995934;28;20030;-81
2022/09/02 00:52:32;;;;;;;3.40;1.98;;;;;;;;;;4979642;28;20030;-81
2022/09/02 00:55:00;;;;;;;3.35;2.28;;;;;;;;;;5012180;28;20048;-82
2022/09/02 00:57:28;;;;;;;4.82;2.20;;;;;;;;;;5012061;28;20026;-81
2022/09/02 01:00:11;;;;;;;3.72;1.95;;;;;;;;;;4995976;28;20076;-81
2022/09/02 01:02:38;;;;;;;3.95;2.42;;;;;;;;;;4996432;28;20065;-82
2022/09/02 01:05:05;;;;;;;2.60;1.98;;;;;;;;;;4995408;28;20496;-81
2022/09/02 01:07:33;;;;;;;4.90;2.40;;;;;;;;;;4995992;28;20042;-81
2022/09/02 01:09:58;;;;;;;2.75;1.92;;;;;;;;;;4995614;28;20247;-81
2022/09/02 01:12:30;;;;;;;2.60;2.00;;;;;;;;;;4995462;28;20046;-84
2022/09/02 01:15:00;;;;;;;4.72;2.22;;;;;;;;;;4996449;28;20411;-82
2022/09/02 01:17:32;;;;;;;5.07;2.10;;;;;;;;;;4995096;28;20527;-86
2022/09/02 01:20:10;;;;;;;3.83;1.98;;;;;;;;;;4996881;28;20408;-83
2022/09/02 01:22:37;;;;;;;3.80;2.30;;;;;;;;;;4996320;28;20042;-84
2022/09/02 01:25:06;;;;;;;2.63;1.92;;;;;;;;;;4995172;28;20069;-80
2022/09/02 01:27:32;;;;;;;4.40;2.08;;;;;;;;;;4995326;28;20033;-80
2022/09/02 01:29:58;;;;;;;3.25;2.38;;;;;;;;;;4995286;28;20042;-80
2022/09/02 01:32:24;;;;;;;2.70;1.75;;;;;;;;;;4994583;28;20038;-80
2022/09/02 01:34:50;;;;;;;4.18;2.10;;;;;;;;;;4978765;28;20030;-81
2022/09/02 01:37:16;;;;;;;2.47;1.65;;;;;;;;;;4995142;28;20080;-82
2022/09/02 01:39:41;;;;;;;3.97;2.00;;;;;;;;;;4979115;28;20030;-81
2022/09/02 01:42:07;;;;;;;5.82;2.08;;;;;;;;;;5007899;28;20083;-81
2022/09/02 01:44:33;;;;;;;3.22;2.28;;;;;;;;;;4981926;28;20049;-81
2022/09/02 01:46:59;;;;;;;2.80;1.80;;;;;;;;;;4994708;28;20116;-81
2022/09/02 01:49:24;;;;;;;5.15;2.35;;;;;;;;;;4994765;28;20030;-80
2022/09/02 01:51:53;;;;;;;3.33;2.00;;;;;;;;;;5010834;28;20046;-81
2022/09/02 01:54:18;;;;;;;3.55;1.73;;;;;;;;;;5010464;28;20046;-80
2022/09/02 01:56:44;;;;;;;2.47;1.83;;;;;;;;;;4994697;28;20084;-81
2022/09/02 01:59:16;;;;;;;4.00;1.95;;;;;;;;;;5028488;28;20111;-80
2022/09/02 02:01:43;;;;;;;3.08;1.67;;;;;;;;;;4983630;28;20025;-80
2022/09/02 02:04:09;;;;;;;3.75;2.20;;;;;;;;;;4981482;28;20046;-81
2022/09/02 02:06:38;;;;;;;2.63;1.92;;;;;;;;;;4998182;28;20513;-80
2022/09/02 02:09:04;;;;;;;2.30;1.77;;;;;;;;;;4981666;28;20504;-81
2022/09/02 02:11:29;;;;;;;4.43;1.83;;;;;;;;;;4996072;28;20068;-80
2022/09/02 02:13:54;;;;;;;3.25;2.05;;;;;;;;;;4996555;28;20427;-80
2022/09/02 02:16:20;;;;;;;3.20;1.80;;;;;;;;;;5013789;28;20038;-81
2022/09/02 02:18:45;;;;;;;3.38;1.75;;;;;;;;;;4997745;28;20495;-80
2022/09/02 02:21:11;;;;;;;3.60;2.13;;;;;;;;;;5013860;28;20484;-81
2022/09/02 02:23:36;;;;;;;3.22;1.92;;;;;;;;;;4997743;28;20399;-81
2022/09/02 02:26:04;;;;;;;3.47;1.77;;;;;;;;;;4997506;28;20111;-80
2022/09/02 02:28:30;;;;;;;3.53;1.98;;;;;;;;;;4998270;28;20399;-81
2022/09/02 02:30:55;;;;;;;2.70;1.88;;;;;;;;;;4997350;28;20026;-81
2022/09/02 02:33:21;;;;;;;3.95;2.03;;;;;;;;;;5013473;28;20036;-81
2022/09/02 02:35:46;;;;;;;3.63;2.05;;;;;;;;;;4997665;28;20037;-81
2022/09/02 02:38:11;;;;;;;4.43;2.00;;;;;;;;;;4997080;28;20099;-81
2022/09/02 02:40:37;;;;;;;3.42;1.90;;;;;;;;;;5013510;28;20041;-80
2022/09/02 02:43:02;;;;;;;2.78;1.65;;;;;;;;;;4996612;28;20072;-81
2022/09/02 02:45:28;;;;;;;3.95;1.80;;;;;;;;;;4997357;28;20056;-80
2022/09/02 02:47:53;;;;;;;2.35;1.45;;;;;;;;;;4996997;28;20033;-80
2022/09/02 02:50:20;;;;;;;2.50;1.90;;;;;;;;;;5014181;28;20045;-81
2022/09/02 02:52:45;;;;;;;4.55;1.80;;;;;;;;;;5029965;28;20026;-81
2022/09/02 02:55:11;;;;;;;2.53;1.80;;;;;;;;;;5013553;28;20047;-81
2022/09/02 02:57:39;;;;;;;3.17;1.92;;;;;;;;;;5009775;28;20026;-81
2022/09/02 03:00:10;;;;;;;3.30;1.88;;;;;;;;;;4978050;28;20034;-81
2022/09/02 03:02:35;;;;;;;2.83;2.10;;;;;;;;;;4961494;28;20508;-81
2022/09/02 03:05:03;;;;;;;2.28;1.52;;;;;;;;;;4995883;28;20096;-81
2022/09/02 03:07:28;;;;;;;2.88;1.70;;;;;;;;;;4997153;28;20103;-81
2022/09/02 03:09:54;;;;;;;2.08;1.40;;;;;;;;;;5001159;28;20408;-80
2022/09/02 03:12:19;;;;;;;2.55;1.73;;;;;;;;;;5000289;28;20050;-81
2022/09/02 03:14:45;;;;;;;3.08;1.65;;;;;;;;;;4984554;28;20042;-81
2022/09/02 03:17:10;;;;;;;3.17;1.80;;;;;;;;;;5000597;28;20069;-81
2022/09/02 03:19:36;;;;;;;4.00;1.88;;;;;;;;;;5001043;28;20404;-81
2022/09/02 03:22:02;;;;;;;2.00;1.50;;;;;;;;;;5000628;28;20055;-81
2022/09/02 03:24:28;;;;;;;1.92;1.40;;;;;;;;;;4984687;28;20053;-81
2022/09/02 03:26:53;;;;;;;3.72;1.80;;;;;;;;;;5000284;28;20458;-81
2022/09/02 03:29:19;;;;;;;3.92;1.50;;;;;;;;;;5001019;28;20458;-81
2022/09/02 03:31:45;;;;;;;2.05;1.50;;;;;;;;;;4984513;28;20065;-81
2022/09/02 03:34:10;;;;;;;2.25;1.42;;;;;;;;;;4984057;28;20040;-81
2022/09/02 03:36:37;;;;;;;2.10;1.50;;;;;;;;;;5000709;28;20068;-81
2022/09/02 03:39:03;;;;;;;1.67;1.33;;;;;;;;;;5000155;28;20036;-81
2022/09/02 03:41:29;;;;;;;2.38;1.55;;;;;;;;;;4983857;28;20053;-81
2022/09/02 03:43:54;;;;;;;2.95;1.90;;;;;;;;;;5000542;28;20396;-81
2022/09/02 03:46:20;;;;;;;2.72;1.58;;;;;;;;;;5016546;28;20061;-81
2022/09/02 03:48:45;;;;;;;2.47;1.50;;;;;;;;;;4984007;28;20029;-80
2022/09/02 03:51:11;;;;;;;2.03;1.55;;;;;;;;;;5000144;28;20044;-81
2022/09/02 03:53:37;;;;;;;3.40;1.48;;;;;;;;;;5016504;28;20107;-81
2022/09/02 03:56:07;;;;;;;2.97;1.27;;;;;;;;;;5016316;28;20043;-81
2022/09/02 03:58:33;;;;;;;2.75;1.50;;;;;;;;;;4997025;28;20029;-81
2022/09/02 04:00:59;;;;;;;2.90;1.85;;;;;;;;;;5003614;28;20473;-81
2022/09/02 04:03:25;;;;;;;2.75;1.58;;;;;;;;;;5028757;28;20120;-80
2022/09/02 04:05:51;;;;;;;2.75;1.23;;;;;;;;;;5029768;28;20397;-80
2022/09/02 04:08:17;;;;;;;2.45;1.58;;;;;;;;;;5029415;28;20420;-81
2022/09/02 04:10:42;;;;;;;3.08;1.60;;;;;;;;;;4996171;28;20044;-81
2022/09/02 04:13:08;;;;;;;3.88;1.60;;;;;;;;;;5012537;28;20049;-81
2022/09/02 04:15:37;;;;;;;2.80;1.70;;;;;;;;;;5029205;28;20041;-81
2022/09/02 04:18:02;;;;;;;3.08;1.52;;;;;;;;;;5028523;28;20130;-81
2022/09/02 04:20:28;;;;;;;2.33;1.30;;;;;;;;;;5012578;28;20033;-80
2022/09/02 04:22:53;;;;;;;2.95;1.55;;;;;;;;;;5029053;28;20099;-81
2022/09/02 04:25:19;;;;;;;2.03;1.42;;;;;;;;;;5012059;28;20081;-80
2022/09/02 04:27:44;;;;;;;1.77;1.10;;;;;;;;;;5012903;28;20392;-81
2022/09/02 04:30:12;;;;;;;2.60;1.40;;;;;;;;;;5028857;28;20038;-81
2022/09/02 04:32:37;;;;;;;2.55;1.50;;;;;;;;;;5012079;28;20040;-81
2022/09/02 04:35:03;;;;;;;2.35;1.60;;;;;;;;;;5012392;28;20397;-81
2022/09/02 04:37:29;;;;;;;2.33;1.52;;;;;;;;;;4996043;28;20052;-81
2022/09/02 04:39:56;;;;;;;2.83;1.50;;;;;;;;;;5029011;28;20038;-81
2022/09/02 04:42:22;;;;;;;3.17;1.25;;;;;;;;;;5031707;28;20522;-81
2022/09/02 04:44:48;;;;;;;3.10;1.50;;;;;;;;;;5015681;28;20030;-81
2022/09/02 04:47:14;;;;;;;2.95;1.50;;;;;;;;;;5011998;28;20045;-81
2022/09/02 04:49:41;;;;;;;2.40;1.42;;;;;;;;;;5028289;28;20062;-81
2022/09/02 04:52:07;;;;;;;2.72;1.50;;;;;;;;;;4995793;28;20034;-81
2022/09/02 04:54:34;;;;;;;2.10;1.35;;;;;;;;;;4995639;28;20101;-81
2022/09/02 04:57:02;;;;;;;2.45;1.60;;;;;;;;;;4963534;28;20488;-81
2022/09/02 04:59:28;;;;;;;2.00;1.35;;;;;;;;;;4980132;28;20044;-81
2022/09/02 05:01:53;;;;;;;2.33;1.25;;;;;;;;;;4995867;28;20038;-81
2022/09/02 05:04:19;;;;;;;2.05;1.38;;;;;;;;;;5011497;28;20052;-81
2022/09/02 05:06:45;;;;;;;2.72;1.65;;;;;;;;;;5012140;28;20064;-81
2022/09/02 05:09:11;;;;;;;3.28;1.40;;;;;;;;;;5027688;28;20038;-81
2022/09/02 05:11:37;;;;;;;1.67;1.27;;;;;;;;;;5011561;28;20038;-81
2022/09/02 05:14:03;;;;;;;2.15;1.45;;;;;;;;;;5012229;28;20042;-84
2022/09/02 05:16:31;;;;;;;2.67;1.83;;;;;;;;;;4995211;28;20037;-82
2022/09/02 05:18:57;;;;;;;2.08;1.60;;;;;;;;;;4995219;28;20034;-81
2022/09/02 05:21:22;;;;;;;2.72;1.50;;;;;;;;;;4995422;28;20045;-83
2022/09/02 05:23:49;;;;;;;4.95;1.75;;;;;;;;;;4995643;28;20037;-82
2022/09/02 05:26:14;;;;;;;6.57;1.42;;;;;;;;;;4994755;28;20389;-82
2022/09/02 05:28:40;;;;;;;5.50;1.95;;;;;;;;;;4994141;28;20040;-82
2022/09/02 05:31:07;;;;;;;3.13;1.45;;;;;;;;;;5011523;28;20448;-82
2022/09/02 05:33:36;;;;;;;8.05;2.60;;;;;;;;;;4995440;28;20039;-82
2022/09/02 05:36:01;;;;;;;7.78;2.60;;;;;;;;;;5011616;28;20038;-82
2022/09/02 05:38:27;;;;;;;6.20;2.13;;;;;;;;;;4994346;28;20026;-80
2022/09/02 05:40:52;;;;;;;5.32;1.98;;;;;;;;;;4997551;28;20120;-79
2022/09/02 05:43:18;;;;;;;5.32;2.45;;;;;;;;;;5014391;28;20055;-79
2022/09/02 05:45:43;;;;;;;5.82;2.20;;;;;;;;;;4981633;28;20037;-80
2022/09/02 05:50:52;;;;;;;6.80;1.92;;;;;;;;;;5017122;28;20034;-80
2022/09/02 05:53:18;;;;;;;4.20;2.88;;;;;;;;;;5013786;28;20317;-80
2022/09/02 05:55:43;;;;;;;4.38;2.13;;;;;;;;;;4997715;28;20053;-80
2022/09/02 05:58:09;;;;;;;4.57;2.03;;;;;;;;;;4997967;28;20025;-80
2022/09/02 06:00:34;;;;;;;5.55;1.90;;;;;;;;;;5038202;28;20480;-81
2022/09/02 06:03:00;;;;;;;6.55;2.63;;;;;;;;;;5017517;28;20090;-80
2022/09/02 06:05:26;;;;;;;6.97;2.97;;;;;;;;;;5017537;28;20055;-80
2022/09/02 06:07:51;;;;;;;6.47;2.00;;;;;;;;;;5017179;28;20087;-79
2022/09/02 06:10:17;;;;;;;9.40;2.70;;;;;;;;;;5050286;28;20380;-80
2022/09/02 06:12:43;;;;;;;9.80;2.38;;;;;;;;;;5050741;28;20025;-80
2022/09/02 06:15:09;;;;;;;8.35;2.33;;;;;;;;;;5050398;28;20148;-83
2022/09/02 06:17:35;;;;;;;12.27;3.70;;;;;;;;;;5033697;28;20115;-83
2022/09/02 06:20:00;;;;;;;7.70;2.92;;;;;;;;;;5050156;28;20033;-80
2022/09/02 06:22:26;;;;;;;10.07;2.50;;;;;;;;;;5033054;28;20098;-81
2022/09/02 06:24:51;;;;;;;15.38;2.85;;;;;;;;;;5017256;28;20044;-81
2022/09/02 06:27:17;;;;;;;7.60;2.38;;;;;;;;;;5066888;28;20056;-81
2022/09/02 06:29:42;;;;;;;10.15;3.30;;;;;;;;;;5033849;28;20037;-81
2022/09/02 06:32:08;;;;;;;7.43;2.50;;;;;;;;;;5032799;28;20416;-81
2022/09/02 06:34:34;;;;;;;12.75;2.78;;;;;;;;;;5032520;28;20043;-81
2022/09/02 06:36:59;;;;;;;8.32;2.50;;;;;;;;;;5033383;28;20060;-81
2022/09/02 06:39:25;;;;;;;8.40;2.55;;;;;;;;;;5051879;28;20511;-81
2022/09/02 06:41:50;;;;;;;6.43;2.67;;;;;;;;;;5028824;28;20060;-82
2022/09/02 06:44:16;;;;;;;10.65;3.13;;;;;;;;;;5003960;28;20045;-82
2022/09/02 06:46:45;;;;;;;4.32;1.90;;;;;;;;;;5003700;28;20488;-82
2022/09/02 06:49:10;;;;;;;6.68;2.33;;;;;;;;;;5019249;28;20026;-82
2022/09/02 06:51:37;;;;;;;6.82;2.65;;;;;;;;;;4999754;28;20049;-81
2022/09/02 06:54:04;;;;;;;8.15;2.22;;;;;;;;;;5005481;28;20492;-82
2022/09/02 06:56:29;;;;;;;6.05;2.10;;;;;;;;;;5004186;28;20511;-82
2022/09/02 06:58:55;;;;;;;3.70;1.70;;;;;;;;;;5036770;28;20121;-82
2022/09/02 07:01:22;;;;;;;3.95;1.80;;;;;;;;;;5019120;28;20033;-82
2022/09/02 07:06:36;;;;;;;6.47;1.80;;;;;;;;;;5035635;28;20128;-82
2022/09/02 07:09:03;;;;;;;3.35;1.65;;;;;;;;;;5019512;28;20044;-82
2022/09/02 07:11:28;;;;;;;4.65;1.58;;;;;;;;;;5036011;28;20044;-83
2022/09/02 07:13:54;;;;;;;5.00;1.92;;;;;;;;;;5003419;28;20127;-83
2022/09/02 07:16:19;;;;;;;6.47;2.20;;;;;;;;;;5019798;28;20469;-82
2022/09/02 07:18:45;;;;;;;4.53;1.60;;;;;;;;;;5003410;28;20491;-83
2022/09/02 07:21:11;;;;;;;4.25;1.92;;;;;;;;;;5003519;28;20041;-82
2022/09/02 07:23:36;;;;;;;5.47;1.80;;;;;;;;;;5003516;28;20419;-83
2022/09/02 07:26:02;;;;;;;5.05;1.90;;;;;;;;;;5003668;28;20056;-83
2022/09/02 07:28:28;;;;;;;6.20;1.90;;;;;;;;;;5019807;28;20484;-83
2022/09/02 07:30:55;;;;;;;3.05;1.65;;;;;;;;;;5003415;28;20140;-82
2022/09/02 07:33:21;;;;;;;4.15;1.80;;;;;;;;;;5035451;28;20037;-81
2022/09/02 07:35:46;;;;;;;4.93;1.88;;;;;;;;;;5003575;28;20124;-83
2022/09/02 07:38:12;;;;;;;7.60;1.90;;;;;;;;;;5019296;28;20025;-82
2022/09/02 07:40:39;;;;;;;4.40;1.73;;;;;;;;;;5003247;28;20033;-84
2022/09/02 07:43:06;;;;;;;6.50;1.67;;;;;;;;;;4986702;28;20029;-84
2022/09/02 07:45:32;;;;;;;3.97;1.80;;;;;;;;;;5002977;28;20065;-83
2022/09/02 07:47:57;;;;;;;5.15;1.67;;;;;;;;;;4999559;28;20040;-84
2022/09/02 07:50:25;;;;;;;5.95;1.42;;;;;;;;;;5021034;28;20030;-83
2022/09/02 07:52:55;;;;;;;4.05;1.70;;;;;;;;;;4996152;28;20049;-82
2022/09/02 07:55:22;;;;;;;2.70;1.52;;;;;;;;;;5029436;28;20042;-83
2022/09/02 07:57:48;;;;;;;6.38;1.60;;;;;;;;;;4996910;28;20144;-83
2022/09/02 08:00:15;;;;;;;7.68;1.65;;;;;;;;;;5012995;28;20161;-83
2022/09/02 08:02:41;;;;;;;11.40;2.53;;;;;;;;;;4996166;28;20033;-82
2022/09/02 08:05:06;;;;;;;9.75;2.28;;;;;;;;;;5013172;28;20038;-84
2022/09/02 08:07:32;;;;;;;5.97;1.70;;;;;;;;;;4996607;28;20061;-83
2022/09/02 08:09:59;;;;;;;5.05;1.90;;;;;;;;;;4996441;28;20033;-83
2022/09/02 08:12:26;;;;;;;3.45;1.45;;;;;;;;;;4996502;28;20037;-84
2022/09/02 08:14:52;;;;;;;3.47;1.40;;;;;;;;;;4996491;28;20038;-84
2022/09/02 08:17:18;;;;;;;5.60;1.80;;;;;;;;;;5012485;28;20519;-83
2022/09/02 08:19:43;;;;;;;2.95;1.60;;;;;;;;;;5029291;28;20033;-83
2022/09/02 08:22:09;;;;;;;2.25;1.10;;;;;;;;;;4996479;28;20520;-84
2022/09/02 08:24:34;;;;;;;3.67;1.38;;;;;;;;;;4996279;28;20042;-83
2022/09/02 08:27:00;;;;;;;2.75;1.42;;;;;;;;;;4996476;28;20456;-83
2022/09/02 08:29:26;;;;;;;5.05;1.52;;;;;;;;;;4996393;28;20121;-83
2022/09/02 08:31:53;;;;;;;4.72;1.77;;;;;;;;;;4996322;28;20125;-84
2022/09/02 08:34:19;;;;;;;5.10;1.35;;;;;;;;;;5012199;28;20088;-86
2022/09/02 08:36:45;;;;;;;4.72;1.90;;;;;;;;;;5012858;28;20070;-84
2022/09/02 08:39:10;;;;;;;4.22;1.50;;;;;;;;;;5028559;28;20116;-83
2022/09/02 08:42:15;;;;;;;4.18;1.50;;;;;;;;;;5015572;28;20408;-84
2022/09/02 08:44:42;;;;;;;2.50;1.13;;;;;;;;;;5012558;28;20037;-83
2022/09/02 08:47:17;;;;;;;3.42;1.58;;;;;;;;;;4979590;28;20022;-83
2022/09/02 08:49:48;;;;;;;3.95;1.08;;;;;;;;;;4998933;28;20025;-83
2022/09/02 08:52:34;;;;;;;4.00;1.42;;;;;;;;;;4983705;28;20037;-84
2022/09/02 08:55:01;;;;;;;2.97;1.17;;;;;;;;;;5021243;28;20057;-84
2022/09/02 08:57:26;;;;;;;3.28;0.85;;;;;;;;;;4999716;28;20108;-84
2022/09/02 08:59:53;;;;;;;3.20;1.00;;;;;;;;;;4998828;28;20045;-84
2022/09/02 09:02:46;;;;;;;1.95;1.20;;;;;;;;;;4982532;28;20083;-83
2022/09/02 09:05:27;;;;;;;2.42;1.02;;;;;;;;;;5015066;28;20086;-84
2022/09/02 09:08:08;;;;;;;3.47;0.98;;;;;;;;;;5015226;28;20075;-83
2022/09/02 09:10:59;;;;;;;3.55;1.55;;;;;;;;;;5015070;28;20029;-84
2022/09/02 09:13:52;;;;;;;2.97;1.25;;;;;;;;;;4983183;28;20052;-84
2022/09/02 09:16:35;;;;;;;1.48;0.77;;;;;;;;;;5000994;28;20041;-84
2022/09/02 09:19:03;;;;;;;3.30;1.33;;;;;;;;;;5031556;28;20041;-84
2022/09/02 09:21:32;;;;;;;2.20;1.08;;;;;;;;;;4998522;28;20033;-84
2022/09/02 09:23:58;;;;;;;8.18;1.90;;;;;;;;;;5014879;28;20050;-83
2022/09/02 09:26:27;;;;;;;16.67;1.98;;;;;;;;;;4999455;28;20033;-88
2022/09/02 09:28:54;;;;;;;6.97;1.30;;;;;;;;;;4983785;28;20090;-89
2022/09/02 09:31:21;;;;;;;3.58;1.10;;;;;;;;;;4983145;28;20090;-84
2022/09/02 09:33:57;;;;;;;8.15;1.42;;;;;;;;;;4982226;28;20500;-86
2022/09/02 09:36:47;;;;;;;6.80;1.60;;;;;;;;;;4998702;28;20515;-85
2022/09/02 09:39:23;;;;;;;4.05;1.23;;;;;;;;;;5007758;28;20407;-85
2022/09/02 09:41:57;;;;;;;2.60;0.90;;;;;;;;;;5014710;28;20029;-85
2022/09/02 09:44:45;;;;;;;5.25;1.42;;;;;;;;;;4998863;28;20095;-85
2022/09/02 09:47:18;;;;;;;7.60;1.92;;;;;;;;;;4998404;28;20033;-84
2022/09/02 09:49:49;;;;;;;4.25;1.38;;;;;;;;;;5014498;28;20033;-85
2022/09/02 09:52:24;;;;;;;5.50;1.50;;;;;;;;;;5031185;28;20070;-86
2022/09/02 09:55:20;;;;;;;4.28;0.98;;;;;;;;;;5014556;28;20526;-85
2022/09/02 09:57:48;;;;;;;5.03;1.63;;;;;;;;;;4990267;28;20049;-88
2022/09/02 10:00:31;;;;;;;5.50;1.42;;;;;;;;;;4999526;28;20115;-89
2022/09/02 10:03:02;;;;;;;3.83;1.17;;;;;;;;;;4999410;28;20409;-88
2022/09/02 10:05:38;;;;;;;5.50;1.33;;;;;;;;;;5015405;28;20534;-88
2022/09/02 10:08:25;;;;;;;6.50;1.85;;;;;;;;;;4999137;28;20041;-87
2022/09/02 10:11:02;;;;;;;3.70;1.35;;;;;;;;;;5014853;28;20048;-88
2022/09/02 10:13:32;;;;;;;3.58;1.10;;;;;;;;;;5031410;28;20033;-89
2022/09/02 10:16:29;;;;;;;3.58;1.08;;;;;;;;;;4999004;28;20037;-88
2022/09/02 10:19:01;;;;;;;5.25;1.50;;;;;;;;;;5015520;28;20048;-88
2022/09/02 10:22:04;;;;;;;3.25;1.30;;;;;;;;;;4998727;28;20128;-88
2022/09/02 10:24:51;;;;;;;3.70;0.90;;;;;;;;;;5015105;28;20414;-88
2022/09/02 10:27:23;;;;;;;3.33;1.17;;;;;;;;;;5014724;28;20037;-89
2022/09/02 10:29:54;;;;;;;3.67;1.13;;;;;;;;;;4999250;28;20037;-89
2022/09/02 10:32:46;;;;;;;3.95;1.17;;;;;;;;;;4998617;28;20419;-89
2022/09/02 10:35:27;;;;;;;1.63;0.80;;;;;;;;;;5013299;28;20132;-88
2022/09/02 10:38:25;;;;;;;8.32;1.42;;;;;;;;;;5014972;28;20034;-89
2022/09/02 10:41:05;;;;;;;4.65;1.65;;;;;;;;;;5015026;28;20030;-89
2022/09/02 10:43:52;;;;;;;4.00;1.58;;;;;;;;;;4996541;28;20021;-88
2022/09/02 10:46:21;;;;;;;2.38;1.30;;;;;;;;;;5014364;28;20036;-88
2022/09/02 10:49:29;;;;;;;3.28;1.23;;;;;;;;;;4994473;28;20084;-87
2022/09/02 10:52:09;;;;;;;2.65;1.42;;;;;;;;;;4950863;29;20043;-82
2022/09/02 10:54:53;;;;;;;3.17;1.48;;;;;;;;;;4988884;28;20050;-83
2022/09/02 10:57:23;;;;;;;2.47;1.05;;;;;;;;;;5009824;28;20069;-82
2022/09/02 10:59:52;;;;;;;2.17;0.98;;;;;;;;;;4984371;28;20029;-82
2022/09/02 11:02:27;;;;;;;4.00;1.10;;;;;;;;;;4997027;28;20419;-82
2022/09/02 11:04:58;;;;;;;3.72;1.10;;;;;;;;;;4997530;28;20037;-82
2022/09/02 11:07:30;;;;;;;2.10;0.88;;;;;;;;;;4997983;28;20041;-81
2022/09/02 11:10:07;;;;;;;1.90;1.00;;;;;;;;;;4997442;28;20025;-81
2022/09/02 11:12:35;;;;;;;2.28;1.13;;;;;;;;;;5013680;28;20064;-81
2022/09/02 11:15:20;;;;;;;1.85;1.08;;;;;;;;;;4996834;28;20036;-82
2022/09/02 11:17:56;;;;;;;2.60;1.02;;;;;;;;;;4996793;28;20511;-81
2022/09/02 11:20:40;;;;;;;2.05;0.80;;;;;;;;;;5013323;28;20040;-81
2022/09/02 11:23:38;;;;;;;2.83;1.02;;;;;;;;;;5028752;28;20119;-81
2022/09/02 11:26:16;;;;;;;1.30;0.80;;;;;;;;;;5021206;28;20176;-81
2022/09/02 11:28:53;;;;;;;1.40;0.80;;;;;;;;;;5000961;28;20037;-82
2022/09/02 11:31:28;;;;;;;1.70;0.88;;;;;;;;;;5016974;28;20034;-81
2022/09/02 11:33:57;;;;;;;2.28;1.10;;;;;;;;;;5017472;28;20492;-81
2022/09/02 11:36:24;;;;;;;1.63;1.02;;;;;;;;;;4984917;28;20030;-81
2022/09/02 11:39:22;;;;;;;2.60;1.10;;;;;;;;;;5000634;28;20123;-81
2022/09/02 11:41:59;;;;;;;2.05;1.15;;;;;;;;;;5035864;28;20045;-81
2022/09/02 11:44:30;;;;;;;1.55;0.77;;;;;;;;;;5016695;28;20401;-82
2022/09/02 11:47:14;;;;;;;4.15;1.15;;;;;;;;;;5032907;28;20029;-81
2022/09/02 11:50:04;;;;;;;2.10;1.00;;;;;;;;;;5016721;28;20127;-82
2022/09/02 11:53:04;;;;;;;2.97;1.08;;;;;;;;;;5031084;28;20157;-81
2022/09/02 11:55:31;;;;;;;1.65;0.95;;;;;;;;;;5012320;28;20532;-81
2022/09/02 11:58:08;;;;;;;2.38;0.90;;;;;;;;;;5029015;28;20030;-81
2022/09/02 12:00:57;;;;;;;1.77;0.80;;;;;;;;;;5013881;28;20115;-81
2022/09/02 12:03:24;;;;;;;2.75;1.10;;;;;;;;;;5025702;28;20033;-80
2022/09/02 12:06:03;;;;;;;2.17;1.00;;;;;;;;;;4980550;28;20531;-81
2022/09/02 12:08:33;;;;;;;3.60;0.98;;;;;;;;;;5028828;28;20034;-80
2022/09/02 12:11:04;;;;;;;3.58;1.00;;;;;;;;;;4995999;28;20069;-80
2022/09/02 12:13:37;;;;;;;3.33;1.00;;;;;;;;;;4996862;28;20049;-80
2022/09/02 12:16:11;;;;;;;2.35;1.20;;;;;;;;;;5029576;28;20104;-83
2022/09/02 12:18:57;;;;;;;3.08;1.23;;;;;;;;;;5012488;28;20041;-82
2022/09/02 12:21:26;;;;;;;171.05;115.95;;;;;;;;;;4988812;28;20054;-82
2022/09/02 12:23:55;;;;;;;114.20;88.22;;;;;;;;;;4963752;28;20034;-80
2022/09/02 12:26:23;;;;;;;73.15;54.47;;;;;;;;;;5012838;28;20120;-81
2022/09/02 12:28:50;;;;;;;78.70;58.15;;;;;;;;;;4996097;28;20447;-80
2022/09/02 12:31:41;;;;;;;45.33;32.33;;;;;;;;;;4963841;28;20076;-81
2022/09/02 12:34:19;;;;;;;36.60;22.23;;;;;;;;;;4996255;28;20407;-82
2022/09/02 12:36:50;;;;;;;29.58;18.75;;;;;;;;;;4995645;28;20083;-80
2022/09/02 12:39:22;;;;;;;22.00;14.30;;;;;;;;;;4979675;28;20439;-81
2022/09/02 12:41:53;;;;;;;19.15;11.90;;;;;;;;;;5006307;28;20124;-80
2022/09/02 12:44:50;;;;;;;13.07;9.13;;;;;;;;;;5015261;28;20456;-80
2022/09/02 12:47:18;;;;;;;12.55;8.27;;;;;;;;;;5027898;28;20057;-80
2022/09/02 12:49:44;;;;;;;11.95;6.38;;;;;;;;;;5016313;28;20381;-81
2022/09/02 12:52:30;;;;;;;8.43;4.13;;;;;;;;;;5031611;28;20136;-80
2022/09/02 12:54:55;;;;;;;5.63;3.10;;;;;;;;;;4994044;28;20595;-80
2022/09/02 12:57:21;;;;;;;5.97;3.10;;;;;;;;;;5015243;28;20039;-80
2022/09/02 12:59:46;;;;;;;6.10;3.00;;;;;;;;;;5015077;28;20037;-80
2022/09/02 13:02:34;;;;;;;5.20;2.58;;;;;;;;;;5015055;28;20392;-81
2022/09/02 13:05:28;;;;;;;5.05;2.30;;;;;;;;;;5014844;28;20305;-80
2022/09/02 13:08:31;;;;;;;4.68;2.13;;;;;;;;;;5014997;28;20092;-81
2022/09/02 13:11:35;;;;;;;3.10;1.92;;;;;;;;;;5031098;28;20064;-82
2022/09/02 13:14:25;;;;;;;3.92;1.67;;;;;;;;;;5011834;28;20041;-81
2022/09/02 13:17:22;;;;;;;5.20;1.30;;;;;;;;;;4978962;28;20036;-81
2022/09/02 13:20:21;;;;;;;2.80;1.17;;;;;;;;;;4996016;28;20099;-80
2022/09/02 13:23:11;;;;;;;2.35;1.20;;;;;;;;;;4995662;28;20113;-80
2022/09/02 13:26:04;;;;;;;2.55;1.45;;;;;;;;;;5011301;28;20091;-80
2022/09/02 13:28:52;;;;;;;3.40;1.10;;;;;;;;;;5011531;28;20038;-80
2022/09/02 13:31:26;;;;;;;5.32;1.33;;;;;;;;;;5028120;28;20041;-80
2022/09/02 13:34:02;;;;;;;3.67;1.30;;;;;;;;;;4979470;28;20044;-88
2022/09/02 13:36:31;;;;;;;4.38;1.38;;;;;;;;;;4995415;28;20132;-88
2022/09/02 13:39:09;;;;;;;2.35;1.27;;;;;;;;;;4995451;28;20125;-87
2022/09/02 13:41:35;;;;;;;4.18;1.33;;;;;;;;;;5008693;28;20063;-88
2022/09/02 13:44:07;;;;;;;2.55;1.23;;;;;;;;;;5002405;28;20029;-89
2022/09/02 13:46:32;;;;;;;3.95;0.90;;;;;;;;;;5002912;28;20036;-88
2022/09/02 13:48:59;;;;;;;2.25;0.82;;;;;;;;;;5001987;28;20033;-89
2022/09/02 13:51:26;;;;;;;1.98;1.02;;;;;;;;;;4986049;28;20025;-88
2022/09/02 13:53:53;;;;;;;2.22;0.93;;;;;;;;;;4983219;28;20038;-88
2022/09/02 13:56:23;;;;;;;3.85;1.02;;;;;;;;;;4999280;28;20087;-88
2022/09/02 13:58:55;;;;;;;2.47;0.80;;;;;;;;;;4999587;28;20029;-89
2022/09/02 14:01:27;;;;;;;4.18;1.00;;;;;;;;;;5000354;28;20033;-90
2022/09/02 14:03:56;;;;;;;1.75;0.82;;;;;;;;;;4999162;28;20128;-89
2022/09/02 14:06:29;;;;;;;2.22;1.13;;;;;;;;;;4999090;28;20045;-89
2022/09/02 14:08:59;;;;;;;3.88;1.15;;;;;;;;;;4982837;28;20029;-88
2022/09/02 14:11:27;;;;;;;2.78;1.10;;;;;;;;;;4999248;28;20170;-88
2022/09/02 14:13:54;;;;;;;15.40;1.52;;;;;;;;;;4983147;28;20029;-89
2022/09/02 14:16:32;;;;;;;2.65;0.93;;;;;;;;;;4983021;28;20049;-88
2022/09/02 14:19:09;;;;;;;3.08;0.98;;;;;;;;;;4983089;28;20084;-89
2022/09/02 14:21:37;;;;;;;1.45;0.85;;;;;;;;;;4982974;28;20079;-89
2022/09/02 14:24:03;;;;;;;3.08;1.15;;;;;;;;;;4982604;28;20141;-89
2022/09/02 14:26:31;;;;;;;2.17;1.08;;;;;;;;;;4982290;28;20124;-90
2022/09/02 14:28:56;;;;;;;1.80;0.60;;;;;;;;;;5014850;28;20029;-87
2022/09/02 14:31:25;;;;;;;2.97;0.95;;;;;;;;;;4998617;28;20102;-88
2022/09/02 14:33:51;;;;;;;3.13;1.00;;;;;;;;;;4982691;28;20045;-86
2022/09/02 14:36:22;;;;;;;2.25;0.70;;;;;;;;;;4999383;28;20121;-88
2022/09/02 14:38:56;;;;;;;2.72;0.80;;;;;;;;;;5015179;28;20041;-88
2022/09/02 14:41:28;;;;;;;1.90;0.90;;;;;;;;;;4999740;28;20512;-87
2022/09/02 14:43:58;;;;;;;2.45;1.13;;;;;;;;;;4999376;28;20087;-87
2022/09/02 14:46:27;;;;;;;2.38;0.70;;;;;;;;;;4998705;28;20570;-88
2022/09/02 14:49:07;;;;;;;1.08;0.60;;;;;;;;;;4998386;28;20065;-87
2022/09/02 14:52:00;;;;;;;2.67;0.90;;;;;;;;;;4995148;28;20408;-87
2022/09/02 14:54:40;;;;;;;1.85;0.80;;;;;;;;;;5009231;28;20156;-87
2022/09/02 14:57:28;;;;;;;1.23;0.63;;;;;;;;;;4995505;28;20400;-87
2022/09/02 14:59:57;;;;;;;1.65;0.73;;;;;;;;;;4982361;28;20495;-88
2022/09/02 15:02:26;;;;;;;2.15;0.70;;;;;;;;;;5001900;28;20112;-88
2022/09/02 15:04:54;;;;;;;1.10;0.60;;;;;;;;;;5035144;28;20038;-88
2022/09/02 15:07:19;;;;;;;0.75;0.57;;;;;;;;;;4986199;28;20041;-87